Time;durP1;ratioP1;P1;durP2;ratioP2;P2;SDS_P1;SDS_P2;PMS_P1;PMS_P2;Temp;Humidity;BMP_temperature;BMP_pressure;BME280_temperature;BME280_humidity;BME280_pressure;Samples;Min_cycle;Max_cycle;Signal;HPM_P1;HPM_P2
2023/10/20 00:01:34;;;;;;;6.93;3.77;;;17.30;99.90;;;;;;4994621;28;20201;-77
2023/10/20 00:04:02;;;;;;;4.73;3.10;;;17.20;99.90;;;;;;5001247;28;20201;-77
2023/10/20 00:06:29;;;;;;;6.10;3.73;;;17.20;99.90;;;;;;4997818;28;20185;-77
2023/10/20 00:08:55;;;;;;;4.27;3.50;;;17.20;99.90;;;;;;4997482;28;20812;-77
2023/10/20 00:11:21;;;;;;;6.53;3.93;;;17.20;99.90;;;;;;5000735;28;20417;-77
2023/10/20 00:13:46;;;;;;;5.80;3.00;;;17.20;99.90;;;;;;4999846;28;20184;-77
2023/10/20 00:16:12;;;;;;;3.80;3.23;;;17.20;99.90;;;;;;5001499;28;20208;-77
2023/10/20 00:18:37;;;;;;;5.37;3.60;;;17.20;99.90;;;;;;5003437;28;20209;-79
2023/10/20 00:21:04;;;;;;;5.50;4.10;;;17.20;99.90;;;;;;5001645;28;20275;-78
2023/10/20 00:23:29;;;;;;;4.57;3.73;;;17.20;99.90;;;;;;4999761;28;20184;-78
2023/10/20 00:25:55;;;;;;;5.10;3.73;;;17.20;99.90;;;;;;4995308;28;20429;-79
2023/10/20 00:28:21;;;;;;;4.50;3.60;;;17.20;99.90;;;;;;4998134;28;21050;-78
2023/10/20 00:30:46;;;;;;;8.00;3.83;;;17.10;99.90;;;;;;4996691;28;20212;-77
2023/10/20 00:33:12;;;;;;;4.83;3.90;;;17.10;99.90;;;;;;4995042;28;20424;-77
2023/10/20 00:35:38;;;;;;;8.03;4.63;;;17.20;99.90;;;;;;4992401;28;20209;-76
2023/10/20 00:38:04;;;;;;;5.13;3.57;;;17.10;99.90;;;;;;4994513;28;20212;-76
2023/10/20 00:40:30;;;;;;;3.63;3.27;;;17.10;99.90;;;;;;4991215;28;20469;-76
2023/10/20 00:42:55;;;;;;;4.90;3.90;;;17.10;99.90;;;;;;4991650;28;20180;-77
2023/10/20 00:45:21;;;;;;;3.57;3.10;;;17.10;99.90;;;;;;4996290;28;20915;-78
2023/10/20 00:47:48;;;;;;;4.40;3.33;;;17.10;99.90;;;;;;5001353;28;20250;-77
2023/10/20 00:50:15;;;;;;;4.90;4.40;;;17.10;99.90;;;;;;5003650;28;20599;-77
2023/10/20 00:52:48;;;;;;;6.00;4.73;;;17.10;99.90;;;;;;5003310;28;20408;-78
2023/10/20 00:55:15;;;;;;;3.93;2.90;;;17.10;99.90;;;;;;5011581;28;20492;-79
2023/10/20 00:57:43;;;;;;;4.73;3.70;;;17.10;99.90;;;;;;5016613;28;20408;-78
2023/10/20 01:00:09;;;;;;;7.80;3.90;;;17.10;99.90;;;;;;4997667;28;21361;-76
2023/10/20 01:02:39;;;;;;;4.50;3.47;;;17.10;99.90;;;;;;4997588;28;20456;-77
2023/10/20 01:05:08;;;;;;;10.13;4.30;;;17.10;99.90;;;;;;5000149;28;20510;-76
2023/10/20 01:07:34;;;;;;;4.33;3.93;;;17.00;99.90;;;;;;4999100;28;20431;-77
2023/10/20 01:10:04;;;;;;;5.37;3.80;;;17.00;99.90;;;;;;4999474;28;20527;-77
2023/10/20 01:12:31;;;;;;;4.70;4.07;;;17.00;99.90;;;;;;4990868;28;20448;-76
2023/10/20 01:15:05;;;;;;;5.63;4.57;;;17.00;99.90;;;;;;4996828;28;20431;-76
2023/10/20 01:17:30;;;;;;;5.57;4.13;;;17.00;99.90;;;;;;4992558;28;20497;-76
2023/10/20 01:20:00;;;;;;;4.40;3.57;;;17.00;99.90;;;;;;4995561;28;20951;-77
2023/10/20 01:22:26;;;;;;;3.73;3.10;;;17.00;99.90;;;;;;4991842;28;20209;-78
2023/10/20 01:24:51;;;;;;;4.23;3.83;;;17.00;99.90;;;;;;4993495;28;20428;-76
2023/10/20 01:27:17;;;;;;;4.90;3.70;;;17.00;99.90;;;;;;4998684;28;20180;-76
2023/10/20 01:29:43;;;;;;;4.60;4.03;;;17.00;99.90;;;;;;4991023;28;20205;-77
2023/10/20 01:32:08;;;;;;;5.70;4.27;;;17.00;99.90;;;;;;4991567;28;20182;-76
2023/10/20 01:34:35;;;;;;;4.57;4.17;;;17.00;99.90;;;;;;4998651;28;20181;-76
2023/10/20 01:37:02;;;;;;;4.23;3.83;;;17.00;99.90;;;;;;5004924;28;20177;-77
2023/10/20 01:39:29;;;;;;;6.73;3.80;;;17.00;99.90;;;;;;4999834;28;21298;-77
2023/10/20 01:41:55;;;;;;;5.43;4.77;;;17.00;99.90;;;;;;5001711;28;20512;-77
2023/10/20 01:44:21;;;;;;;6.00;3.80;;;17.00;99.90;;;;;;4998326;28;20815;-76
2023/10/20 01:46:50;;;;;;;4.90;4.30;;;17.00;99.90;;;;;;4992162;28;20429;-76
2023/10/20 01:49:17;;;;;;;6.60;4.70;;;17.00;99.90;;;;;;5001691;28;20451;-76
2023/10/20 01:51:42;;;;;;;5.57;4.73;;;16.90;99.90;;;;;;4996933;28;20939;-77
2023/10/20 01:54:08;;;;;;;4.77;4.07;;;16.90;99.90;;;;;;4995247;28;20432;-77
2023/10/20 01:56:34;;;;;;;7.70;4.67;;;16.90;99.90;;;;;;4997331;28;20608;-76
2023/10/20 01:58:59;;;;;;;5.30;4.80;;;16.90;99.90;;;;;;4998090;28;20744;-77
2023/10/20 02:01:26;;;;;;;6.80;5.20;;;16.90;99.90;;;;;;5023124;28;20395;-77
2023/10/20 02:03:52;;;;;;;5.57;4.50;;;16.90;99.90;;;;;;5002382;28;20255;-78
2023/10/20 02:06:18;;;;;;;5.30;4.80;;;16.90;99.90;;;;;;5006949;28;20985;-77
2023/10/20 02:08:43;;;;;;;4.77;4.27;;;16.90;99.90;;;;;;5005778;28;20197;-77
2023/10/20 02:11:09;;;;;;;6.20;4.53;;;16.90;99.90;;;;;;4999340;28;20201;-77
2023/10/20 02:13:36;;;;;;;5.80;4.43;;;16.90;99.90;;;;;;5000901;28;20185;-77
2023/10/20 02:16:02;;;;;;;5.30;4.40;;;16.90;99.90;;;;;;5004450;28;20272;-77
2023/10/20 02:18:28;;;;;;;5.10;4.43;;;16.80;99.90;;;;;;4996722;28;20535;-77
2023/10/20 02:20:57;;;;;;;5.83;4.77;;;16.80;99.90;;;;;;4995832;28;20692;-77
2023/10/20 02:23:23;;;;;;;4.70;4.00;;;16.80;99.90;;;;;;5002014;28;20630;-76
2023/10/20 02:26:08;;;;;;;5.87;3.90;;;16.80;99.90;;;;;;5000345;28;20789;-76
2023/10/20 02:28:35;;;;;;;4.63;4.10;;;16.80;99.90;;;;;;4997936;28;20643;-76
2023/10/20 02:31:14;;;;;;;4.90;4.10;;;16.80;99.90;;;;;;5003310;28;20427;-76
2023/10/20 02:33:39;;;;;;;5.70;4.40;;;16.80;99.90;;;;;;4992553;28;20430;-76
2023/10/20 02:36:05;;;;;;;5.50;3.80;;;16.80;99.90;;;;;;5004172;28;21138;-78
2023/10/20 02:38:31;;;;;;;4.80;3.70;;;16.80;99.90;;;;;;5007261;28;20627;-77
2023/10/20 02:40:56;;;;;;;5.13;4.63;;;16.80;99.90;;;;;;5003151;28;20231;-77
2023/10/20 02:43:23;;;;;;;7.17;3.80;;;16.80;99.90;;;;;;5002379;28;20264;-77
2023/10/20 02:45:53;;;;;;;4.30;3.90;;;16.80;99.90;;;;;;5005153;28;20404;-77
2023/10/20 02:48:23;;;;;;;4.20;3.77;;;16.80;99.90;;;;;;5000051;28;20512;-77
2023/10/20 02:50:49;;;;;;;3.63;3.30;;;16.80;99.90;;;;;;4998206;28;20445;-77
2023/10/20 02:53:15;;;;;;;3.57;3.27;;;16.80;99.90;;;;;;5006073;28;20439;-77
2023/10/20 02:55:41;;;;;;;5.40;3.43;;;16.80;99.90;;;;;;4994689;28;20590;-77
2023/10/20 02:58:10;;;;;;;4.40;3.13;;;16.80;99.90;;;;;;4998665;28;20467;-77
2023/10/20 03:00:45;;;;;;;5.40;3.97;;;16.80;99.90;;;;;;5000882;28;20455;-77
2023/10/20 03:03:12;;;;;;;4.70;3.73;;;16.80;99.90;;;;;;5001816;28;20422;-77
2023/10/20 03:05:38;;;;;;;4.63;3.40;;;16.70;99.90;;;;;;5002576;28;20970;-77
2023/10/20 03:08:04;;;;;;;5.17;3.60;;;16.70;99.90;;;;;;5004869;28;20444;-77
2023/10/20 03:10:30;;;;;;;4.40;3.73;;;16.70;99.90;;;;;;4999463;28;20920;-76
2023/10/20 03:12:57;;;;;;;4.77;3.63;;;16.70;99.90;;;;;;5005749;28;20543;-76
2023/10/20 03:15:22;;;;;;;4.87;3.27;;;16.70;99.90;;;;;;4999188;28;20511;-77
2023/10/20 03:17:48;;;;;;;5.13;3.50;;;16.70;99.90;;;;;;5008009;28;20177;-78
2023/10/20 03:20:17;;;;;;;4.20;3.67;;;16.70;99.90;;;;;;5003895;28;20270;-79
2023/10/20 03:22:43;;;;;;;5.00;4.10;;;16.70;99.90;;;;;;4997637;28;20583;-76
2023/10/20 03:25:10;;;;;;;4.13;3.70;;;16.70;99.90;;;;;;4998092;28;20447;-75
2023/10/20 03:27:37;;;;;;;4.47;3.80;;;16.70;99.90;;;;;;4992299;28;20994;-75
2023/10/20 03:30:05;;;;;;;4.43;3.23;;;16.70;99.90;;;;;;4996796;28;20442;-75
2023/10/20 03:32:31;;;;;;;5.43;3.13;;;16.70;99.90;;;;;;5000425;28;20428;-76
2023/10/20 03:34:57;;;;;;;4.40;3.80;;;16.80;99.90;;;;;;4996185;28;20493;-75
2023/10/20 03:37:22;;;;;;;3.53;3.23;;;16.70;99.90;;;;;;4990959;28;20424;-75
2023/10/20 03:39:49;;;;;;;4.27;3.33;;;16.70;99.90;;;;;;4995325;28;20225;-75
2023/10/20 03:42:15;;;;;;;4.33;3.50;;;16.70;99.90;;;;;;4996785;28;20653;-75
2023/10/20 03:44:42;;;;;;;3.60;2.93;;;16.70;99.90;;;;;;4999543;28;20615;-75
2023/10/20 03:47:08;;;;;;;3.97;3.50;;;16.70;99.90;;;;;;4994207;28;20276;-75
2023/10/20 03:49:35;;;;;;;5.20;3.30;;;16.70;99.90;;;;;;4996063;28;21212;-75
2023/10/20 03:52:01;;;;;;;4.73;3.40;;;16.70;99.90;;;;;;4989299;28;20185;-75
2023/10/20 03:54:30;;;;;;;3.80;3.27;;;16.70;99.90;;;;;;4991591;28;20498;-75
2023/10/20 03:56:56;;;;;;;4.73;3.60;;;16.70;99.90;;;;;;4994043;28;20443;-75
2023/10/20 03:59:22;;;;;;;4.63;3.57;;;16.70;99.90;;;;;;4999244;28;20439;-75
2023/10/20 04:01:47;;;;;;;6.00;3.40;;;16.70;99.90;;;;;;4996418;28;20472;-76
2023/10/20 04:04:13;;;;;;;4.57;3.73;;;16.70;99.90;;;;;;4999466;28;20189;-75
2023/10/20 04:06:39;;;;;;;3.57;3.00;;;16.70;99.90;;;;;;4997404;28;20205;-76
2023/10/20 04:09:09;;;;;;;3.50;3.20;;;16.70;99.90;;;;;;4993359;28;20665;-76
2023/10/20 04:11:35;;;;;;;4.30;3.50;;;16.70;99.90;;;;;;4999573;28;20497;-75
2023/10/20 04:14:07;;;;;;;4.07;3.53;;;16.70;99.90;;;;;;4994178;28;20605;-76
2023/10/20 04:16:41;;;;;;;3.90;3.33;;;16.70;99.90;;;;;;4999631;28;20420;-75
2023/10/20 04:19:10;;;;;;;6.90;4.47;;;16.70;99.90;;;;;;5000730;28;21048;-76
2023/10/20 04:21:38;;;;;;;4.10;3.40;;;16.70;99.90;;;;;;4998355;28;20513;-75
2023/10/20 04:24:06;;;;;;;5.27;3.73;;;16.70;99.90;;;;;;5004008;28;20411;-75
2023/10/20 04:26:33;;;;;;;4.43;3.87;;;16.70;99.90;;;;;;4998848;28;20433;-75
2023/10/20 04:58:35;;;;;;;5.07;3.60;;;16.50;99.90;;;;;;4993128;28;20483;-75
2023/10/20 05:01:07;;;;;;;5.70;4.27;;;16.50;99.90;;;;;;4995397;28;20468;-74
2023/10/20 05:03:45;;;;;;;8.30;4.60;;;16.50;99.90;;;;;;4999562;28;20432;-75
2023/10/20 05:06:22;;;;;;;5.83;4.90;;;16.50;99.90;;;;;;5002121;28;20455;-75
2023/10/20 05:08:48;;;;;;;6.00;4.87;;;16.50;99.90;;;;;;4993198;28;21150;-75
2023/10/20 05:11:15;;;;;;;7.57;5.07;;;16.50;99.90;;;;;;4990755;28;20489;-75
2023/10/20 05:13:41;;;;;;;6.30;5.70;;;16.50;99.90;;;;;;4990832;28;20436;-75
2023/10/20 05:16:09;;;;;;;5.93;5.33;;;16.50;99.90;;;;;;4993104;28;20451;-75
2023/10/20 05:18:38;;;;;;;5.80;5.00;;;16.50;99.90;;;;;;4995249;28;20460;-75
2023/10/20 05:21:12;;;;;;;8.23;5.50;;;16.50;99.90;;;;;;4989736;28;21187;-74
2023/10/20 05:23:38;;;;;;;7.40;5.77;;;16.40;99.90;;;;;;4988872;28;20417;-75
2023/10/20 05:26:04;;;;;;;5.67;5.07;;;16.50;99.90;;;;;;4990723;28;20782;-75
2023/10/20 05:28:30;;;;;;;7.03;5.33;;;16.50;99.90;;;;;;4994573;28;20467;-75
2023/10/20 05:30:57;;;;;;;6.57;4.50;;;16.50;99.90;;;;;;4994082;28;20647;-74
2023/10/20 05:33:24;;;;;;;9.47;5.67;;;16.50;99.90;;;;;;4995890;28;20490;-75
2023/10/20 05:35:50;;;;;;;5.30;4.80;;;16.50;99.90;;;;;;4994650;28;20440;-75
2023/10/20 05:38:16;;;;;;;10.17;6.70;;;16.50;99.90;;;;;;5000213;28;20990;-75
2023/10/20 05:40:42;;;;;;;6.10;5.60;;;16.50;99.90;;;;;;4999465;28;20213;-75
2023/10/20 05:43:08;;;;;;;5.93;5.07;;;16.50;99.90;;;;;;4990195;28;20185;-75
2023/10/20 05:45:37;;;;;;;7.37;5.53;;;16.50;99.90;;;;;;4993435;28;20181;-74
2023/10/20 05:48:05;;;;;;;5.50;5.00;;;16.40;99.90;;;;;;4992883;28;21701;-76
2023/10/20 05:50:37;;;;;;;6.53;5.73;;;16.40;99.90;;;;;;4996461;28;20412;-75
2023/10/20 05:53:03;;;;;;;6.87;5.03;;;16.50;99.90;;;;;;4993676;28;22445;-76
2023/10/20 05:55:29;;;;;;;7.60;5.40;;;16.50;99.90;;;;;;4995425;28;20951;-76
2023/10/20 05:57:55;;;;;;;10.87;5.77;;;16.40;99.90;;;;;;4990238;28;20975;-76
2023/10/20 06:00:20;;;;;;;5.83;5.23;;;16.40;99.90;;;;;;4978113;28;20212;-75
2023/10/20 06:02:46;;;;;;;5.80;5.20;;;16.40;99.90;;;;;;5023986;28;20188;-74
2023/10/20 06:05:13;;;;;;;6.70;6.00;;;16.40;99.90;;;;;;4996474;28;20790;-76
2023/10/20 06:07:40;;;;;;;8.60;5.57;;;16.30;99.90;;;;;;4995930;28;20516;-74
2023/10/20 06:10:08;;;;;;;6.80;5.90;;;16.30;99.90;;;;;;5016140;28;20519;-74
2023/10/20 06:12:34;;;;;;;6.40;5.73;;;16.30;99.90;;;;;;4995801;28;20440;-74
2023/10/20 06:14:59;;;;;;;6.40;5.80;;;16.30;99.90;;;;;;4993206;28;20429;-74
2023/10/20 06:17:25;;;;;;;7.60;5.43;;;16.30;99.90;;;;;;5000623;28;20193;-73
2023/10/20 06:19:51;;;;;;;6.83;5.53;;;16.30;99.90;;;;;;4995316;28;20236;-74
2023/10/20 06:22:16;;;;;;;7.37;5.40;;;16.30;99.90;;;;;;4998532;28;20753;-75
2023/10/20 06:24:43;;;;;;;6.20;5.33;;;16.30;99.90;;;;;;4989235;28;20195;-74
2023/10/20 06:27:11;;;;;;;6.10;4.90;;;16.30;99.90;;;;;;4996133;28;20216;-74
2023/10/20 06:29:48;;;;;;;;;;;;;;;;;;;;;
2023/10/20 06:32:32;;;;;;;8.10;6.17;;;16.30;99.90;;;;;;4991614;28;20461;-74
2023/10/20 06:35:02;;;;;;;8.97;5.90;;;16.30;99.90;;;;;;4993347;28;20934;-74
2023/10/20 06:37:41;;;;;;;5.73;5.13;;;16.30;99.90;;;;;;4993149;28;20946;-74
2023/10/20 06:40:12;;;;;;;7.17;5.47;;;16.30;99.90;;;;;;5000712;28;20432;-74
2023/10/20 06:42:37;;;;;;;8.87;4.87;;;16.30;99.90;;;;;;4993570;28;20954;-73
2023/10/20 06:45:04;;;;;;;6.33;5.20;;;16.30;99.90;;;;;;4999694;28;20520;-73
2023/10/20 06:47:30;;;;;;;7.13;5.53;;;16.30;99.90;;;;;;4995604;28;20196;-73
2023/10/20 06:49:56;;;;;;;8.03;4.97;;;16.30;99.90;;;;;;4999673;28;20435;-74
2023/10/20 06:52:21;;;;;;;4.77;4.37;;;16.30;99.90;;;;;;5012468;28;20185;-74
2023/10/20 06:54:48;;;;;;;5.57;5.07;;;16.30;99.90;;;;;;5000057;28;20331;-74
2023/10/20 06:57:15;;;;;;;5.87;4.47;;;16.40;99.90;;;;;;4998230;28;20208;-74
2023/10/20 06:59:40;;;;;;;5.10;4.60;;;16.30;99.90;;;;;;5001530;28;20466;-74
2023/10/20 07:02:06;;;;;;;7.30;4.90;;;16.40;99.90;;;;;;4999180;28;20452;-75
2023/10/20 07:04:32;;;;;;;7.53;5.10;;;16.40;99.90;;;;;;5000150;28;20667;-72
2023/10/20 07:06:58;;;;;;;7.10;5.50;;;16.40;99.90;;;;;;4994533;28;20335;-73
2023/10/20 07:09:24;;;;;;;7.43;5.17;;;16.40;99.90;;;;;;4999454;28;20197;-74
2023/10/20 07:11:49;;;;;;;5.10;4.60;;;16.40;99.90;;;;;;4998343;28;20816;-74
2023/10/20 07:14:15;;;;;;;6.93;4.90;;;16.40;99.90;;;;;;4998463;28;20189;-75
2023/10/20 07:16:41;;;;;;;6.07;4.90;;;16.40;99.90;;;;;;4998375;28;20559;-74
2023/10/20 07:19:08;;;;;;;8.47;4.73;;;16.50;99.90;;;;;;4995469;28;20538;-74
2023/10/20 07:21:35;;;;;;;10.20;5.47;;;16.50;99.90;;;;;;4996805;28;20999;-74
2023/10/20 07:24:03;;;;;;;11.53;4.90;;;16.50;99.90;;;;;;4988952;28;21015;-74
2023/10/20 07:26:28;;;;;;;6.10;5.20;;;16.60;99.90;;;;;;4992804;28;20512;-73
2023/10/20 07:28:54;;;;;;;5.50;4.30;;;16.60;99.90;;;;;;4997843;28;20903;-73
2023/10/20 07:31:21;;;;;;;7.00;5.40;;;16.60;99.90;;;;;;4992675;28;20194;-74
2023/10/20 07:33:49;;;;;;;5.20;4.30;;;16.60;99.90;;;;;;5002451;28;20196;-73
2023/10/20 07:36:15;;;;;;;5.57;4.97;;;16.70;99.90;;;;;;4997563;28;20519;-73
2023/10/20 07:38:42;;;;;;;5.27;4.70;;;16.70;99.90;;;;;;4991850;28;20826;-73
2023/10/20 07:41:11;;;;;;;7.13;5.20;;;16.70;99.90;;;;;;4990217;28;21015;-74
2023/10/20 07:43:37;;;;;;;7.50;5.20;;;16.70;99.90;;;;;;5000274;28;20447;-74
2023/10/20 07:46:03;;;;;;;5.90;4.53;;;16.70;99.90;;;;;;4993680;28;20515;-73
2023/10/20 07:48:32;;;;;;;5.60;4.80;;;16.70;99.90;;;;;;5001932;28;20998;-74
2023/10/20 07:51:01;;;;;;;6.43;5.00;;;16.70;99.90;;;;;;4993024;28;20500;-74
2023/10/20 07:53:27;;;;;;;5.50;4.83;;;16.70;99.90;;;;;;5003836;28;20424;-74
2023/10/20 07:55:52;;;;;;;8.60;5.40;;;16.80;99.90;;;;;;4999912;28;20517;-74
2023/10/20 07:58:18;;;;;;;8.40;5.20;;;16.80;99.90;;;;;;5006579;28;20914;-74
2023/10/20 08:00:43;;;;;;;5.33;4.73;;;16.80;99.90;;;;;;5001269;28;20174;-73
2023/10/20 08:03:11;;;;;;;6.53;5.30;;;16.80;99.90;;;;;;5000586;28;20195;-74
2023/10/20 08:05:37;;;;;;;6.13;4.67;;;16.80;99.90;;;;;;4996880;28;20281;-74
2023/10/20 08:08:04;;;;;;;8.13;5.00;;;16.90;99.90;;;;;;4995832;28;20457;-73
2023/10/20 08:10:30;;;;;;;6.00;4.60;;;16.90;99.90;;;;;;4995679;28;20528;-73
2023/10/20 08:12:55;;;;;;;9.40;5.10;;;16.90;99.90;;;;;;4994871;28;20441;-74
2023/10/20 08:15:21;;;;;;;8.87;5.50;;;17.00;99.90;;;;;;4995272;28;20408;-73
2023/10/20 08:17:48;;;;;;;6.83;5.77;;;17.00;99.90;;;;;;4997869;28;20716;-72
2023/10/20 08:20:14;;;;;;;6.03;4.97;;;17.00;99.90;;;;;;4997460;28;20432;-73
2023/10/20 08:22:40;;;;;;;13.43;10.83;;;17.10;99.90;;;;;;4999994;28;20570;-75
2023/10/20 08:25:08;;;;;;;9.50;5.83;;;17.10;99.90;;;;;;4992095;28;20864;-73
2023/10/20 08:27:34;;;;;;;8.87;6.83;;;17.20;99.90;;;;;;4996121;28;20420;-74
2023/10/20 08:30:00;;;;;;;6.90;6.10;;;17.20;99.90;;;;;;4996645;28;20457;-73
2023/10/20 08:32:25;;;;;;;7.70;5.47;;;17.30;99.90;;;;;;4997921;28;20596;-74
2023/10/20 08:34:51;;;;;;;10.83;9.10;;;17.30;99.90;;;;;;4998089;28;20185;-74
2023/10/20 08:37:17;;;;;;;7.17;5.73;;;17.30;99.90;;;;;;4997427;28;20207;-74
2023/10/20 08:39:46;;;;;;;7.17;5.73;;;17.30;99.90;;;;;;4991047;28;20214;-74
2023/10/20 08:42:20;;;;;;;9.30;6.40;;;17.30;99.90;;;;;;4997056;28;20510;-74
2023/10/20 08:44:46;;;;;;;6.70;6.00;;;17.40;99.90;;;;;;4990285;28;20409;-74
2023/10/20 08:47:14;;;;;;;8.50;6.60;;;17.40;99.90;;;;;;4994741;28;20803;-73
2023/10/20 08:49:40;;;;;;;8.43;6.63;;;17.40;99.90;;;;;;4993145;28;21010;-73
2023/10/20 08:52:13;;;;;;;8.10;6.13;;;17.50;99.90;;;;;;4999476;28;21678;-73
2023/10/20 08:54:39;;;;;;;6.70;5.77;;;17.50;99.90;;;;;;4996410;28;20420;-74
2023/10/20 08:57:05;;;;;;;7.57;6.23;;;17.50;99.90;;;;;;4991116;28;20531;-73
2023/10/20 08:59:35;;;;;;;8.00;6.33;;;17.60;99.90;;;;;;4994353;28;20522;-72
2023/10/20 09:02:02;;;;;;;6.57;5.87;;;17.60;99.90;;;;;;4990354;28;20560;-74
2023/10/20 09:04:28;;;;;;;9.87;6.37;;;17.60;99.90;;;;;;4992936;28;20439;-73
2023/10/20 09:06:54;;;;;;;12.73;6.47;;;17.70;99.90;;;;;;4997623;28;20436;-74
2023/10/20 09:09:20;;;;;;;9.47;5.87;;;17.80;99.90;;;;;;4992129;28;20990;-74
2023/10/20 09:11:46;;;;;;;6.60;5.90;;;17.80;99.90;;;;;;4990899;28;20435;-73
2023/10/20 09:14:12;;;;;;;7.57;6.77;;;17.80;99.90;;;;;;4988727;28;20696;-73
2023/10/20 09:16:39;;;;;;;6.70;5.70;;;17.80;99.90;;;;;;4988482;28;20423;-73
2023/10/20 09:19:05;;;;;;;7.70;6.00;;;17.70;99.90;;;;;;4993303;28;20467;-74
2023/10/20 09:21:31;;;;;;;5.30;4.80;;;17.70;99.90;;;;;;5021645;28;20461;-74
2023/10/20 09:24:00;;;;;;;6.10;4.30;;;17.80;99.90;;;;;;4996163;28;20439;-74
2023/10/20 09:26:27;;;;;;;6.30;4.47;;;17.80;99.90;;;;;;5002522;28;20203;-73
2023/10/20 09:28:54;;;;;;;5.77;4.60;;;17.80;99.90;;;;;;4991990;28;20455;-74
2023/10/20 09:31:21;;;;;;;6.77;3.97;;;17.90;99.90;;;;;;4995750;28;20426;-74
2023/10/20 09:33:48;;;;;;;6.73;3.80;;;18.00;99.90;;;;;;4992754;28;20423;-74
2023/10/20 09:36:15;;;;;;;4.73;3.90;;;18.00;99.90;;;;;;4995752;28;20479;-74
2023/10/20 09:38:44;;;;;;;7.83;4.00;;;18.00;99.90;;;;;;4996293;28;20527;-75
2023/10/20 09:41:15;;;;;;;6.40;3.90;;;18.00;99.90;;;;;;4995825;28;20456;-73
2023/10/20 09:43:48;;;;;;;5.03;3.73;;;18.10;99.90;;;;;;4992853;28;20439;-73
2023/10/20 09:46:38;;;;;;;6.40;4.53;;;18.10;99.90;;;;;;4992802;28;20720;-73
2023/10/20 09:49:15;;;;;;;5.43;4.20;;;18.20;99.90;;;;;;4997271;28;20444;-74
2023/10/20 09:51:45;;;;;;;4.37;3.97;;;18.20;99.90;;;;;;4997628;28;20430;-74
2023/10/20 09:54:13;;;;;;;3.90;3.50;;;18.20;99.90;;;;;;4997315;28;20420;-74
2023/10/20 09:56:41;;;;;;;6.10;4.13;;;18.00;99.90;;;;;;5006408;28;20448;-74
2023/10/20 09:59:09;;;;;;;5.40;3.53;;;17.90;99.90;;;;;;4993601;28;20520;-74
2023/10/20 10:01:37;;;;;;;4.13;3.73;;;18.00;99.90;;;;;;4989385;28;20472;-74
2023/10/20 10:04:04;;;;;;;5.10;3.83;;;18.00;99.90;;;;;;4992160;28;20796;-73
2023/10/20 10:06:37;;;;;;;5.70;3.87;;;18.00;99.90;;;;;;4999364;28;20464;-74
2023/10/20 10:09:06;;;;;;;6.23;5.60;;;18.00;99.90;;;;;;4994730;28;20441;-74
2023/10/20 10:11:39;;;;;;;5.50;4.00;;;18.00;99.90;;;;;;4998250;28;20486;-73
2023/10/20 10:14:07;;;;;;;6.73;3.80;;;18.00;99.90;;;;;;5001362;28;20432;-74
2023/10/20 10:16:37;;;;;;;4.83;4.27;;;18.00;99.90;;;;;;5000070;28;20450;-74
2023/10/20 10:19:09;;;;;;;5.30;4.47;;;17.90;99.90;;;;;;5000901;28;20527;-74
2023/10/20 10:21:39;;;;;;;5.00;3.90;;;17.90;99.90;;;;;;5013617;28;20460;-73
2023/10/20 10:24:15;;;;;;;8.07;4.47;;;17.70;99.90;;;;;;4999309;28;21018;-74
2023/10/20 10:27:06;;;;;;;6.93;3.97;;;17.60;99.90;;;;;;5002600;28;20744;-75
2023/10/20 10:29:59;;;;;;;6.17;4.90;;;17.70;99.90;;;;;;5000686;28;20966;-73
2023/10/20 10:32:31;;;;;;;6.03;4.40;;;17.80;99.90;;;;;;5001453;28;20436;-74
2023/10/20 10:34:58;;;;;;;4.73;3.73;;;17.70;99.90;;;;;;4995538;28;20445;-73
2023/10/20 10:37:30;;;;;;;4.40;3.97;;;17.70;99.90;;;;;;5004209;28;20431;-73
2023/10/20 10:40:08;;;;;;;4.67;4.17;;;17.80;99.90;;;;;;4996982;28;20474;-74
2023/10/20 10:42:41;;;;;;;4.97;4.00;;;17.90;99.90;;;;;;4999479;28;20618;-73
2023/10/20 10:45:31;;;;;;;4.33;3.93;;;17.90;99.90;;;;;;5001232;28;20439;-74
2023/10/20 10:48:18;;;;;;;4.87;4.13;;;17.90;99.90;;;;;;4995147;28;20452;-74
2023/10/20 10:50:47;;;;;;;7.37;4.00;;;18.10;99.90;;;;;;4999238;28;20587;-72
2023/10/20 10:53:14;;;;;;;5.27;4.70;;;18.20;99.90;;;;;;5001187;28;20441;-74
2023/10/20 10:55:41;;;;;;;4.50;4.10;;;18.30;99.90;;;;;;4995942;28;20873;-73
2023/10/20 10:58:12;;;;;;;4.30;3.73;;;18.40;99.90;;;;;;5001238;28;20570;-74
2023/10/20 11:00:40;;;;;;;4.50;3.60;;;18.40;99.90;;;;;;4998310;28;20439;-74
2023/10/20 11:03:07;;;;;;;3.90;3.53;;;18.50;99.90;;;;;;4997275;28;20415;-74
2023/10/20 11:05:33;;;;;;;4.70;3.67;;;18.60;99.90;;;;;;4999162;28;21248;-73
2023/10/20 11:08:12;;;;;;;4.03;2.90;;;18.60;99.90;;;;;;5000409;28;20524;-73
2023/10/20 11:10:42;;;;;;;3.97;2.70;;;18.80;99.90;;;;;;4997416;28;20412;-74
2023/10/20 11:13:13;;;;;;;2.93;2.63;;;18.90;99.90;;;;;;4994871;28;20431;-73
2023/10/20 11:15:39;;;;;;;6.47;2.70;;;18.90;99.90;;;;;;4997947;28;20431;-73
2023/10/20 11:18:06;;;;;;;3.30;2.63;;;19.10;99.90;;;;;;4995162;28;20457;-73
2023/10/20 11:20:41;;;;;;;3.50;2.00;;;19.30;99.90;;;;;;4994569;28;20433;-73
2023/10/20 11:23:08;;;;;;;3.23;2.00;;;19.40;99.90;;;;;;4994932;28;20438;-73
2023/10/20 11:25:34;;;;;;;3.03;2.40;;;19.40;99.90;;;;;;4990093;28;20524;-74
2023/10/20 11:28:02;;;;;;;2.70;2.27;;;19.50;99.90;;;;;;4996628;28;20436;-74
2023/10/20 11:30:34;;;;;;;2.60;2.07;;;19.50;99.90;;;;;;4992229;28;20459;-73
2023/10/20 11:33:00;;;;;;;2.63;2.10;;;19.50;99.90;;;;;;4990904;28;20468;-72
2023/10/20 11:35:26;;;;;;;2.70;1.77;;;19.50;99.90;;;;;;5001904;28;21133;-73
2023/10/20 11:37:56;;;;;;;2.83;1.70;;;19.60;99.90;;;;;;4993232;28;20424;-73
2023/10/20 11:40:23;;;;;;;2.30;1.80;;;19.70;99.90;;;;;;5000368;28;20436;-76
2023/10/20 11:42:48;;;;;;;2.30;1.53;;;19.90;99.90;;;;;;4998288;28;20495;-74
2023/10/20 11:45:15;;;;;;;2.23;1.30;;;20.90;99.90;;;;;;5005588;28;20455;-73
2023/10/20 11:47:41;;;;;;;1.90;1.40;;;22.40;99.90;;;;;;4995315;28;20169;-73
2023/10/20 11:50:11;;;;;;;3.10;1.40;;;22.10;99.90;;;;;;5000352;28;20408;-74
2023/10/20 11:52:41;;;;;;;2.13;1.40;;;21.90;99.90;;;;;;4992511;28;20768;-73
2023/10/20 11:55:10;;;;;;;2.87;1.23;;;21.70;99.90;;;;;;5021525;28;20420;-73
2023/10/20 11:57:36;;;;;;;2.83;1.40;;;21.50;99.90;;;;;;5004976;28;20435;-73
2023/10/20 12:00:07;;;;;;;4.23;1.50;;;21.20;99.90;;;;;;4997696;28;20491;-73
2023/10/20 12:02:33;;;;;;;2.70;1.57;;;20.70;99.90;;;;;;4990313;28;20467;-74
2023/10/20 12:05:00;;;;;;;2.30;1.50;;;20.40;99.90;;;;;;4998207;28;20485;-74
2023/10/20 12:07:26;;;;;;;2.30;1.70;;;20.40;99.90;;;;;;5001162;28;20459;-74
2023/10/20 12:09:51;;;;;;;4.27;1.70;;;20.40;99.90;;;;;;4995892;28;20436;-74
2023/10/20 12:12:17;;;;;;;2.57;1.60;;;20.20;99.90;;;;;;4994800;28;20243;-73
2023/10/20 12:14:44;;;;;;;2.37;1.60;;;20.00;99.90;;;;;;4990838;28;20424;-73
2023/10/20 12:17:10;;;;;;;2.53;1.50;;;19.90;99.90;;;;;;5000768;28;20185;-74
2023/10/20 12:19:36;;;;;;;3.60;1.70;;;19.80;99.90;;;;;;5002422;28;20485;-73
2023/10/20 12:22:02;;;;;;;2.30;1.87;;;19.90;99.90;;;;;;4991566;28;20209;-73
2023/10/20 12:24:28;;;;;;;2.97;1.80;;;19.90;99.90;;;;;;4995988;28;20877;-73
2023/10/20 12:26:55;;;;;;;2.77;1.37;;;19.90;99.90;;;;;;4999375;28;20181;-73
2023/10/20 12:29:22;;;;;;;2.50;1.40;;;19.90;99.90;;;;;;5004784;28;20541;-73
2023/10/20 12:31:48;;;;;;;3.50;1.40;;;20.20;99.90;;;;;;5002913;28;20429;-73
2023/10/20 12:34:14;;;;;;;3.70;1.50;;;20.30;99.90;;;;;;5023335;28;20804;-73
2023/10/20 12:36:41;;;;;;;1.97;1.20;;;20.20;99.90;;;;;;5002431;28;20427;-73
2023/10/20 12:39:07;;;;;;;2.97;1.40;;;20.30;99.90;;;;;;5002656;28;20594;-73
2023/10/20 12:41:33;;;;;;;1.80;1.20;;;20.40;99.90;;;;;;5000499;28;20479;-73
2023/10/20 12:43:59;;;;;;;2.17;1.40;;;20.50;99.90;;;;;;4999608;28;20433;-73
2023/10/20 12:46:24;;;;;;;2.00;1.13;;;20.50;99.90;;;;;;4996819;28;20437;-72
2023/10/20 12:48:50;;;;;;;2.00;1.10;;;20.50;99.90;;;;;;4995715;28;20205;-73
2023/10/20 12:51:16;;;;;;;4.23;1.50;;;20.60;99.90;;;;;;5022282;28;20229;-73
2023/10/20 12:53:41;;;;;;;2.00;1.23;;;20.50;99.90;;;;;;4999163;28;20427;-73
2023/10/20 12:56:07;;;;;;;1.87;1.27;;;20.40;99.90;;;;;;4995059;28;20224;-73
2023/10/20 12:58:38;;;;;;;7.50;1.50;;;20.50;99.90;;;;;;4988748;28;20204;-74
2023/10/20 13:01:04;;;;;;;2.07;1.27;;;20.40;99.90;;;;;;4992963;28;20492;-73
2023/10/20 13:03:30;;;;;;;1.73;1.10;;;20.40;99.90;;;;;;4995569;28;20547;-77
2023/10/20 13:05:56;;;;;;;1.80;1.20;;;20.30;99.90;;;;;;4995987;28;20869;-77
2023/10/20 13:08:24;;;;;;;1.90;1.10;;;20.00;99.90;;;;;;4991877;28;20443;-73
2023/10/20 13:10:51;;;;;;;1.60;1.00;;;20.00;99.90;;;;;;4993901;28;20212;-73
2023/10/20 13:13:17;;;;;;;2.03;1.13;;;19.90;99.90;;;;;;4998404;28;20439;-73
2023/10/20 13:15:46;;;;;;;3.80;1.50;;;19.90;99.90;;;;;;4989922;28;20440;-73
2023/10/20 13:18:15;;;;;;;2.20;1.30;;;19.90;99.90;;;;;;4987018;28;20211;-77
2023/10/20 13:20:45;;;;;;;1.80;1.10;;;19.80;99.90;;;;;;4993327;28;20441;-76